Time;durP1;ratioP1;P1;durP2;ratioP2;P2;SDS_P1;SDS_P2;PMS_P1;PMS_P2;Temp;Humidity;BMP_temperature;BMP_pressure;BME280_temperature;BME280_humidity;BME280_pressure;Samples;Min_cycle;Max_cycle;Signal;HPM_P1;HPM_P2
2022/01/10 05:30:28;;;;;;;;;47.00;39.50;;;;;7.37;74.76;101094.09;5064161;27;45447;-74
2022/01/10 05:32:54;;;;;;;;;45.50;39.25;;;;;7.32;74.87;101090.66;5053037;28;46326;-76
2022/01/10 05:35:19;;;;;;;;;39.50;34.25;;;;;7.36;75.10;101107.47;5053259;28;45297;-76
2022/01/10 05:37:44;;;;;;;;;57.50;42.25;;;;;7.25;74.89;101096.19;5053848;28;45228;-77
2022/01/10 05:40:10;;;;;;;;;44.75;38.75;;;;;7.29;75.14;101098.75;5053113;28;45208;-75
2022/01/10 05:42:35;;;;;;;;;45.00;38.50;;;;;7.31;75.09;101104.06;5053253;28;46381;-75
2022/01/10 05:45:02;;;;;;;;;45.00;39.75;;;;;7.23;74.72;101096.22;5053364;28;45358;-75
2022/01/10 05:47:27;;;;;;;;;50.00;39.50;;;;;7.11;74.92;101078.78;5039136;28;45313;-74
2022/01/10 05:50:00;;;;;;;;;45.50;39.50;;;;;7.34;74.61;101120.84;5038939;28;45631;-75
2022/01/10 05:52:26;;;;;;;;;50.00;41.50;;;;;7.35;74.57;101127.94;5056951;28;46378;-76
2022/01/10 05:54:51;;;;;;;;;38.25;36.00;;;;;7.36;74.62;101132.34;5038320;28;45392;-75
2022/01/10 05:57:17;;;;;;;;;48.00;40.50;;;;;7.38;74.85;101137.66;5056636;28;45352;-75
2022/01/10 05:59:42;;;;;;;;;50.50;40.25;;;;;7.33;74.52;101136.88;5056436;28;45595;-76
2022/01/10 06:02:07;;;;;;;;;41.50;36.50;;;;;7.31;74.61;101141.41;5056474;28;46276;-75
2022/01/10 06:04:33;;;;;;;;;47.50;38.75;;;;;7.29;74.77;101148.56;5056751;28;45426;-75
2022/01/10 06:06:58;;;;;;;;;46.00;39.75;;;;;7.31;74.86;101154.72;5056973;28;45399;-76
2022/01/10 06:09:23;;;;;;;;;45.25;38.75;;;;;7.27;74.32;101156.59;5056611;28;45256;-75
2022/01/10 06:11:49;;;;;;;;;51.25;41.00;;;;;7.27;74.55;101150.38;5056460;28;46140;-76
2022/01/10 06:14:14;;;;;;;;;51.25;40.00;;;;;7.34;74.71;101173.31;5062258;28;45411;-74
2022/01/10 06:16:39;;;;;;;;;43.75;39.00;;;;;7.33;74.34;101183.09;5056815;28;45572;-72
2022/01/10 06:19:05;;;;;;;;;45.25;38.50;;;;;7.32;75.07;101197.34;5059279;28;45486;-76
2022/01/10 06:21:30;;;;;;;;;51.50;39.75;;;;;7.32;74.71;101199.13;5056797;28;45395;-73
2022/01/10 06:23:56;;;;;;;;;51.75;39.75;;;;;7.23;74.86;101187.78;5043281;28;45509;-73
2022/01/10 06:26:21;;;;;;;;;47.25;40.25;;;;;7.31;74.70;101210.75;5068428;28;45572;-68
2022/01/10 06:28:46;;;;;;;;;50.25;42.25;;;;;7.21;74.42;101194.09;5052558;28;45426;-74
2022/01/10 06:31:13;;;;;;;;;51.50;40.00;;;;;7.29;75.08;101216.09;5056173;28;45375;-72
2022/01/10 06:33:39;;;;;;;;;45.25;39.00;;;;;7.33;74.99;101214.22;5038016;28;45574;-73
2022/01/10 06:36:08;;;;;;;;;54.25;41.75;;;;;7.34;75.00;101218.63;5056752;28;45216;-71
2022/01/10 06:38:34;;;;;;;;;53.75;42.25;;;;;7.32;74.77;101212.47;5055784;28;46062;-73
2022/01/10 06:40:59;;;;;;;;;44.50;37.50;;;;;7.35;74.60;101234.59;5039801;28;46151;-75
2022/01/10 06:43:25;;;;;;;;;46.50;39.00;;;;;7.32;74.78;101221.34;5057770;28;45460;-74
2022/01/10 06:45:51;;;;;;;;;53.50;40.25;;;;;7.36;74.33;101240.81;5062644;28;45310;-74
2022/01/10 06:48:16;;;;;;;;;54.75;42.25;;;;;7.32;73.97;101239.13;5055759;28;45631;-76
2022/01/10 06:50:46;;;;;;;;;38.50;34.25;;;;;7.40;74.75;101251.38;5056020;28;45392;-73
2022/01/10 06:53:17;;;;;;;;;57.75;43.75;;;;;7.43;74.85;101253.97;5055602;28;45472;-73
2022/01/10 06:55:43;;;;;;;;;53.00;43.00;;;;;7.38;73.78;101265.69;5056131;28;45461;-71
2022/01/10 06:58:08;;;;;;;;;53.50;43.25;;;;;7.34;73.63;101263.97;5054847;28;45772;-70
2022/01/10 07:00:34;;;;;;;;;52.25;44.25;;;;;7.39;73.53;101292.31;5055878;28;45371;-72
2022/01/10 07:03:00;;;;;;;;;42.50;37.50;;;;;7.34;73.83;101294.19;5054942;28;45335;-71
2022/01/10 07:05:25;;;;;;;;;46.50;41.25;;;;;7.38;73.29;101305.69;5038979;28;46050;-74
2022/01/10 07:07:51;;;;;;;;;53.50;40.75;;;;;7.36;73.49;101311.06;5057619;28;45261;-71
2022/01/10 07:10:16;;;;;;;;;56.50;42.00;;;;;7.46;73.88;101317.03;5056411;28;45487;-73
2022/01/10 07:12:41;;;;;;;;;55.50;41.75;;;;;7.51;73.39;101326.69;5054970;28;45433;-72
2022/01/10 07:15:07;;;;;;;;;35.25;20.75;;;;;7.47;74.00;101325.03;5049980;28;45315;-73
2022/01/10 07:17:33;;;;;;;;;42.75;38.00;;;;;7.47;73.01;101335.69;5052291;28;45343;-71
2022/01/10 07:19:59;;;;;;;;;54.75;38.50;;;;;7.55;72.81;101351.50;5035065;28;48089;-70
2022/01/10 07:22:25;;;;;;;;;36.50;30.50;;;;;7.52;72.65;101343.56;5053475;28;45570;-70
2022/01/10 07:24:50;;;;;;;;;37.00;29.50;;;;;7.60;74.01;101360.28;5054191;28;45387;-70
2022/01/10 07:27:15;;;;;;;;;34.50;29.75;;;;;7.57;72.61;101360.38;5034988;28;47354;-72
2022/01/10 07:29:41;;;;;;;;;40.75;31.75;;;;;7.58;73.26;101380.78;5053073;28;46109;-70
2022/01/10 07:32:07;;;;;;;;;31.00;26.00;;;;;7.59;72.76;101387.88;5052812;28;45548;-70
2022/01/10 07:34:33;;;;;;;;;33.25;24.50;;;;;7.61;72.60;101394.06;5053910;28;45666;-70
2022/01/10 07:36:58;;;;;;;;;30.25;28.25;;;;;7.55;72.13;101394.19;5064457;28;45310;-70
2022/01/10 07:39:23;;;;;;;;;27.00;22.75;;;;;7.49;71.95;101399.66;5053195;28;45843;-71
2022/01/10 07:41:49;;;;;;;;;30.75;25.00;;;;;7.44;72.04;101399.78;5053264;28;45589;-71
2022/01/10 07:44:14;;;;;;;;;21.25;20.00;;;;;7.40;72.04;101413.22;5054360;28;45268;-69
2022/01/10 07:46:40;;;;;;;;;23.25;19.75;;;;;7.31;72.82;101406.31;5053166;28;46650;-71
2022/01/10 07:49:05;;;;;;;;;27.00;20.75;;;;;7.38;72.84;101431.94;5053053;28;45387;-72
2022/01/10 07:51:30;;;;;;;;;20.00;17.00;;;;;7.37;72.19;101437.28;5059066;28;45466;-71
2022/01/10 07:53:57;;;;;;;;;26.50;21.00;;;;;7.32;72.26;101440.03;5053199;28;45411;-72
2022/01/10 07:56:23;;;;;;;;;22.00;18.25;;;;;7.26;72.16;101449.97;5052834;28;46147;-71
2022/01/10 07:58:51;;;;;;;;;29.25;20.75;;;;;7.25;72.33;101462.44;5052209;28;46565;-73
2022/01/10 08:01:18;;;;;;;;;23.50;19.75;;;;;7.21;72.33;101471.41;5057504;28;45575;-72
2022/01/10 08:03:43;;;;;;;;;22.25;20.25;;;;;7.13;71.89;101466.25;5060679;28;45486;-74
2022/01/10 08:06:08;;;;;;;;;27.25;23.75;;;;;7.12;71.69;101468.94;5056118;28;45354;-74
2022/01/10 08:08:35;;;;;;;;;24.75;19.75;;;;;7.08;71.89;101476.09;5032715;28;47316;-75
2022/01/10 08:11:00;;;;;;;;;25.50;19.75;;;;;7.01;71.92;101470.91;5052446;28;45497;-74
2022/01/10 08:13:26;;;;;;;;;32.00;27.50;;;;;6.92;71.17;101468.44;5014644;28;45900;-73
2022/01/10 08:15:51;;;;;;;;;30.50;23.00;;;;;7.00;71.72;101491.38;5051210;28;45362;-70
2022/01/10 08:18:17;;;;;;;;;24.75;21.75;;;;;6.96;71.46;101494.13;5053108;28;45505;-70
2022/01/10 08:20:43;;;;;;;;;33.75;27.75;;;;;6.87;71.15;101500.53;5052980;28;45662;-70
2022/01/10 08:23:08;;;;;;;;;38.25;29.00;;;;;6.74;71.39;101486.53;5051548;28;45368;-70
2022/01/10 08:25:34;;;;;;;;;29.25;22.75;;;;;6.68;71.68;101485.75;5046087;28;45464;-71
2022/01/10 08:28:00;;;;;;;;;31.75;28.00;;;;;6.65;72.07;101494.69;5057554;28;47448;-73
2022/01/10 08:30:26;;;;;;;;;29.25;27.00;;;;;6.55;72.13;101493.09;5052035;28;45503;-72
2022/01/10 08:32:51;;;;;;;;;44.00;30.25;;;;;6.64;72.38;101516.03;5057149;28;45352;-69
2022/01/10 08:35:17;;;;;;;;;35.25;28.50;;;;;6.64;72.66;101518.69;5052507;28;45501;-71
2022/01/10 08:37:44;;;;;;;;;33.75;31.50;;;;;6.62;72.45;101526.72;5047705;28;45334;-69
2022/01/10 08:40:11;;;;;;;;;38.50;26.75;;;;;6.64;72.21;101526.69;5053012;28;45315;-70
2022/01/10 08:42:37;;;;;;;;;34.25;31.00;;;;;6.61;72.42;101524.09;5041215;28;45462;-71
2022/01/10 08:45:03;;;;;;;;;30.25;28.25;;;;;6.66;71.57;101548.84;5051982;28;45478;-71
2022/01/10 08:47:29;;;;;;;;;33.50;27.25;;;;;6.64;71.94;101540.00;5051893;28;45496;-70
2022/01/10 08:49:55;;;;;;;;;35.50;26.00;;;;;6.64;71.75;101540.00;5052314;28;45489;-70
2022/01/10 08:52:20;;;;;;;;;28.25;25.75;;;;;6.56;71.65;101534.81;5052429;28;45520;-70
2022/01/10 08:54:48;;;;;;;;;41.25;31.00;;;;;6.58;70.98;101548.09;5052342;28;45524;-72
2022/01/10 08:57:14;;;;;;;;;29.50;26.25;;;;;6.56;71.01;101552.56;5052002;28;45968;-70
2022/01/10 08:59:43;;;;;;;;;27.00;24.50;;;;;6.43;71.07;101543.91;5052466;28;45432;-71
2022/01/10 09:02:09;;;;;;;;;28.50;23.50;;;;;6.50;71.71;101566.88;5035739;28;45544;-70
2022/01/10 09:04:34;;;;;;;;;25.00;21.25;;;;;6.48;71.33;101579.34;5052216;28;45568;-71
2022/01/10 09:07:02;;;;;;;;;32.00;26.75;;;;;6.53;71.44;101585.50;5051782;28;46234;-70
2022/01/10 09:09:28;;;;;;;;;25.75;20.00;;;;;6.56;71.47;101590.75;5051993;28;45510;-72
2022/01/10 09:11:54;;;;;;;;;20.00;18.25;;;;;6.53;71.43;101590.81;5034066;28;45372;-71
2022/01/10 09:14:19;;;;;;;;;19.50;17.50;;;;;6.53;71.15;101597.94;5051951;28;45327;-70
2022/01/10 09:16:45;;;;;;;;;20.00;17.25;;;;;6.49;70.75;101596.19;5057438;28;46808;-71
2022/01/10 09:19:10;;;;;;;;;25.50;20.25;;;;;6.41;70.82;101597.19;5049747;28;46043;-72
2022/01/10 09:21:36;;;;;;;;;24.25;20.75;;;;;6.44;71.60;101607.81;5059994;28;45256;-73
2022/01/10 09:24:03;;;;;;;;;23.00;17.25;;;;;6.44;72.06;101604.28;5034901;28;46586;-74
2022/01/10 09:26:29;;;;;;;;;23.25;21.25;;;;;6.47;71.53;101621.06;5045873;28;47649;-71
2022/01/10 09:28:55;;;;;;;;;21.25;20.25;;;;;6.50;72.17;101630.81;5053350;28;45421;-72
2022/01/10 09:31:22;;;;;;;;;24.75;20.50;;;;;6.51;72.26;101615.72;5057633;28;45487;-73
2022/01/10 09:33:53;;;;;;;;;32.75;21.75;;;;;6.53;71.63;101614.78;5056272;28;45559;-73
2022/01/10 09:36:18;;;;;;;;;25.25;21.25;;;;;6.54;71.88;101619.22;5057782;28;45482;-72
2022/01/10 09:38:44;;;;;;;;;23.25;18.25;;;;;6.65;71.27;101629.69;5058320;28;45326;-73
2022/01/10 09:41:09;;;;;;;;;25.75;22.00;;;;;6.60;71.52;101624.44;5063161;28;45507;-73
2022/01/10 09:43:35;;;;;;;;;29.00;22.50;;;;;6.69;71.66;101634.06;5056265;28;45587;-72
2022/01/10 09:46:00;;;;;;;;;30.75;23.75;;;;;6.73;71.42;101635.78;5055408;28;46090;-72
2022/01/10 09:48:26;;;;;;;;;23.00;23.00;;;;;6.73;70.87;101646.44;5055150;28;45482;-72
2022/01/10 09:50:51;;;;;;;;;30.75;24.25;;;;;6.72;71.12;101644.69;5057916;28;45536;-73
2022/01/10 09:53:18;;;;;;;;;22.25;19.50;;;;;6.72;71.32;101653.53;5054437;28;45505;-73
2022/01/10 09:55:44;;;;;;;;;18.25;18.25;;;;;6.71;71.46;101656.25;5056073;28;45412;-72
2022/01/10 09:58:09;;;;;;;;;32.50;24.00;;;;;6.71;71.23;101664.25;5066399;28;45495;-73
2022/01/10 10:00:35;;;;;;;;;27.50;22.00;;;;;6.61;71.40;101666.16;5055281;28;45785;-73
2022/01/10 10:03:01;;;;;;;;;29.00;22.75;;;;;6.58;71.38;101678.66;5047744;28;45562;-72
2022/01/10 10:05:26;;;;;;;;;32.00;27.75;;;;;6.43;71.55;101672.66;5055102;28;46237;-73
2022/01/10 10:07:52;;;;;;;;;29.50;27.00;;;;;6.47;72.37;101689.44;5064794;28;45153;-73
2022/01/10 10:10:18;;;;;;;;;27.75;26.00;;;;;6.46;72.11;101693.03;5053564;28;45287;-73
2022/01/10 10:12:48;;;;;;;;;34.00;25.00;;;;;6.43;72.43;101688.63;5054111;28;45415;-75
2022/01/10 10:15:17;;;;;;;;;18.75;17.25;;;;;6.40;71.99;101688.66;5054484;28;46305;-72
2022/01/10 10:17:44;;;;;;;;;30.75;20.50;;;;;6.42;72.59;101688.63;5043469;28;45545;-73
2022/01/10 10:20:12;;;;;;;;;32.25;23.00;;;;;6.40;73.01;101683.34;5054707;28;45390;-74
2022/01/10 10:22:43;;;;;;;;;29.00;21.75;;;;;6.49;72.74;101695.63;5041365;28;45755;-74
2022/01/10 10:25:10;;;;;;;;;30.75;20.25;;;;;6.51;72.73;101707.16;5054571;28;45396;-73
2022/01/10 10:27:38;;;;;;;;;27.75;22.25;;;;;6.46;73.12;101690.38;5054268;28;45346;-72
2022/01/10 10:30:07;;;;;;;;;38.50;31.50;;;;;6.45;73.00;101688.63;5054680;28;45434;-72
2022/01/10 10:32:34;;;;;;;;;27.00;23.25;;;;;6.36;72.97;101697.59;5054422;28;45598;-73
2022/01/10 10:35:00;;;;;;;;;28.50;25.25;;;;;6.37;73.87;101695.81;5055490;28;45327;-72
2022/01/10 10:37:27;;;;;;;;;31.25;23.25;;;;;6.43;73.34;101709.94;5055286;28;45348;-72
2022/01/10 10:39:56;;;;;;;;;28.50;24.50;;;;;6.38;72.99;101706.44;5046261;28;45391;-72
2022/01/10 10:42:27;;;;;;;;;27.00;22.25;;;;;6.41;73.69;101701.06;5055800;28;45599;-71
2022/01/10 10:44:52;;;;;;;;;30.75;23.75;;;;;6.48;73.26;101701.88;5054655;28;48146;-72
2022/01/10 10:47:20;;;;;;;;;29.75;25.25;;;;;6.54;73.19;101712.47;5053148;28;45506;-72
2022/01/10 10:49:50;;;;;;;;;26.25;22.25;;;;;6.61;73.78;101718.56;5054707;28;45521;-72
2022/01/10 10:52:15;;;;;;;;;31.25;23.00;;;;;6.68;73.16;101720.25;5057369;28;45343;-73
2022/01/10 10:54:41;;;;;;;;;26.25;26.25;;;;;6.62;73.18;101693.69;5057643;28;45559;-73
2022/01/10 10:57:09;;;;;;;;;32.00;27.50;;;;;6.73;72.76;101715.72;5055276;28;45409;-72
2022/01/10 10:59:39;;;;;;;;;35.75;26.00;;;;;6.78;72.77;101724.53;5037006;28;45425;-72
2022/01/10 11:02:05;;;;;;;;;26.75;23.50;;;;;6.71;73.00;101722.88;5034438;28;45335;-72
2022/01/10 11:04:31;;;;;;;;;35.50;24.00;;;;;6.67;73.01;101724.69;5057063;28;45375;-72
2022/01/10 11:06:58;;;;;;;;;25.75;21.75;;;;;6.76;72.84;101737.88;5061428;28;45462;-73
2022/01/10 11:09:24;;;;;;;;;29.75;23.75;;;;;6.81;73.52;101740.47;5055008;28;45339;-73
2022/01/10 11:11:50;;;;;;;;;28.50;23.75;;;;;6.81;72.79;101737.81;5053394;28;45415;-74
2022/01/10 11:14:18;;;;;;;;;31.75;26.00;;;;;6.86;73.45;101740.41;5054048;28;46023;-73
2022/01/10 11:16:46;;;;;;;;;45.50;35.75;;;;;6.87;73.02;101736.84;5053494;28;45445;-72
2022/01/10 11:19:11;;;;;;;;;31.75;23.75;;;;;6.84;73.12;101733.31;5054229;28;45493;-72
2022/01/10 11:21:39;;;;;;;;;34.00;32.75;;;;;6.83;73.26;101730.69;5035357;28;45768;-72
2022/01/10 11:24:05;;;;;;;;;39.75;30.25;;;;;6.70;73.72;101714.00;5034337;28;46349;-74
2022/01/10 11:26:39;;;;;;;;;33.75;30.25;;;;;6.73;73.12;101723.72;5047795;28;45390;-72
2022/01/10 11:29:07;;;;;;;;;34.00;29.00;;;;;6.81;73.64;101753.78;5034983;28;45416;-73
2022/01/10 11:31:35;;;;;;;;;35.25;28.00;;;;;6.84;73.18;101753.75;5066465;28;45429;-70
2022/01/10 11:34:01;;;;;;;;;39.25;29.25;;;;;6.82;73.61;101739.56;5053017;28;46583;-76
2022/01/10 11:36:28;;;;;;;;;38.75;27.75;;;;;6.84;73.50;101743.09;5054204;28;45440;-74
2022/01/10 11:38:59;;;;;;;;;33.00;27.25;;;;;6.74;73.36;101730.81;5060658;28;45655;-75
2022/01/10 11:41:32;;;;;;;;;35.25;31.00;;;;;6.72;73.06;101730.81;5056985;28;45376;-77
2022/01/10 11:44:04;;;;;;;;;27.00;21.75;;;;;6.83;72.39;101752.00;5040656;28;46163;-77
2022/01/10 11:46:40;;;;;;;;;26.00;23.50;;;;;6.89;72.56;101765.22;5054113;28;45524;-76
2022/01/10 11:49:09;;;;;;;;;29.00;27.25;;;;;6.90;72.56;101763.44;5058808;28;45446;-73
2022/01/10 11:51:49;;;;;;;;;31.75;26.25;;;;;6.91;72.58;101763.44;5052991;28;45438;-69
2022/01/10 11:54:37;;;;;;;;;39.00;25.25;;;;;6.96;72.91;101774.03;5054397;28;46106;-72
2022/01/10 11:57:11;;;;;;;;;28.25;25.25;;;;;6.97;72.49;101775.81;5052761;28;45364;-73
2022/01/10 11:59:46;;;;;;;;;34.50;24.75;;;;;7.03;73.00;101773.03;5053622;28;45387;-76
2022/01/10 12:02:23;;;;;;;;;29.00;25.25;;;;;7.02;72.41;101769.50;5054193;28;45354;-74
2022/01/10 12:04:55;;;;;;;;;42.75;30.00;;;;;7.01;72.27;101764.19;5040198;27;45377;-71
2022/01/10 12:07:22;;;;;;;;;39.25;29.00;;;;;6.93;72.62;101756.28;5053871;28;45277;-72
2022/01/10 12:09:47;;;;;;;;;36.50;28.50;;;;;7.05;72.47;101769.47;5052706;28;45331;-74
2022/01/10 12:12:16;;;;;;;;;34.00;25.50;;;;;7.12;72.92;101784.44;5052612;28;45752;-75
2022/01/10 12:14:43;;;;;;;;;27.75;26.75;;;;;7.04;72.67;101759.69;5053249;28;46207;-71
2022/01/10 12:17:09;;;;;;;;;37.25;26.75;;;;;7.12;72.36;101781.78;5053765;28;45374;-71
2022/01/10 12:19:35;;;;;;;;;36.00;28.00;;;;;7.18;72.54;101783.47;5046309;28;45720;-74
2022/01/10 12:22:02;;;;;;;;;19.25;13.25;;;;;7.17;71.79;101782.59;5057519;28;46523;-74
2022/01/10 12:24:27;;;;;;;;;44.75;32.50;;;;;7.18;71.80;101786.13;5055548;28;46147;-74
2022/01/10 12:26:53;;;;;;;;;34.00;24.00;;;;;7.14;71.77;101785.31;5052322;28;45544;-74
2022/01/10 12:29:18;;;;;;;;;34.75;27.50;;;;;7.16;72.30;101790.59;5055105;28;45304;-72
2022/01/10 12:31:46;;;;;;;;;31.00;26.25;;;;;7.19;72.09;101801.22;5053886;28;45754;-75
2022/01/10 12:34:13;;;;;;;;;34.50;29.75;;;;;7.22;72.44;101804.75;5047465;28;46627;-74
2022/01/10 12:36:40;;;;;;;;;38.50;29.75;;;;;7.23;72.12;101809.16;5050442;28;46180;-72
2022/01/10 12:39:11;;;;;;;;;32.25;24.50;;;;;7.31;72.48;101822.41;5040616;28;45370;-72
2022/01/10 12:41:38;;;;;;;;;33.50;30.25;;;;;7.26;71.99;101799.34;5051943;28;45376;-73
2022/01/10 12:44:04;;;;;;;;;38.25;28.50;;;;;7.37;72.53;101818.75;5052040;28;45724;-73
2022/01/10 12:46:32;;;;;;;;;36.25;30.00;;;;;7.35;72.16;101813.44;5052457;28;45303;-74
2022/01/10 12:49:04;;;;;;;;;30.25;29.50;;;;;7.41;71.31;101824.00;5052350;28;45421;-75
2022/01/10 12:51:43;;;;;;;;;32.00;28.25;;;;;7.41;71.74;101831.13;5051812;28;45441;-75
2022/01/10 12:54:14;;;;;;;;;28.00;23.50;;;;;7.27;71.22;101806.44;5053950;28;45951;-73
2022/01/10 12:56:40;;;;;;;;;31.75;25.50;;;;;7.30;71.27;101830.41;5055652;28;45374;-73
2022/01/10 12:59:05;;;;;;;;;28.25;20.50;;;;;7.25;71.03;101824.25;5055862;28;45441;-74
2022/01/10 13:01:31;;;;;;;;;27.25;22.50;;;;;7.30;70.73;101831.31;5055627;28;45653;-74
2022/01/10 13:04:01;;;;;;;;;30.75;25.25;;;;;7.29;70.71;101839.31;5055705;28;46189;-74
2022/01/10 13:06:32;;;;;;;;;27.50;18.50;;;;;7.20;71.33;101835.00;5055948;28;45515;-74
2022/01/10 13:08:57;;;;;;;;;25.25;20.00;;;;;7.23;71.25;101837.59;5062445;28;45423;-73
2022/01/10 13:11:30;;;;;;;;;26.00;24.50;;;;;7.29;71.50;101842.00;5056013;28;45522;-74
2022/01/10 13:14:07;;;;;;;;;24.75;17.75;;;;;7.29;71.54;101842.00;5060726;28;46995;-74
2022/01/10 13:16:33;;;;;;;;;32.50;20.75;;;;;7.25;71.06;101848.25;5048465;28;45367;-73
2022/01/10 13:19:10;;;;;;;;;28.25;24.00;;;;;7.14;71.59;101838.66;5060236;28;45457;-74
2022/01/10 13:21:42;;;;;;;;;28.00;22.50;;;;;7.15;71.97;101852.84;5047870;28;45459;-73
2022/01/10 13:24:19;;;;;;;;;22.50;21.50;;;;;7.13;72.01;101854.66;5061513;28;46158;-72
2022/01/10 13:27:05;;;;;;;;;28.00;23.50;;;;;7.08;71.94;101869.84;5062229;28;45409;-72
2022/01/10 13:29:41;;;;;;;;;34.75;23.75;;;;;7.02;72.05;101868.13;5063995;28;45323;-73
2022/01/10 13:32:20;;;;;;;;;32.00;24.50;;;;;7.01;72.21;101874.38;5056945;28;45409;-73
2022/01/10 13:34:50;;;;;;;;;27.75;25.00;;;;;6.92;72.35;101870.94;5056110;28;46195;-73
2022/01/10 13:37:28;;;;;;;;;29.75;25.50;;;;;6.89;73.11;101869.19;5055790;28;45690;-73
2022/01/10 13:40:15;;;;;;;;;37.00;29.00;;;;;6.88;72.74;101877.22;5054991;28;45486;-74
2022/01/10 13:42:47;;;;;;;;;36.75;29.50;;;;;6.88;72.63;101890.56;5038073;28;45486;-73
2022/01/10 13:45:14;;;;;;;;;32.50;28.25;;;;;6.87;72.69;101889.66;5054226;28;46351;-72
2022/01/10 13:47:51;;;;;;;;;29.50;24.75;;;;;6.90;72.74;101892.28;5071811;28;45812;-72
2022/01/10 13:50:23;;;;;;;;;30.25;24.50;;;;;6.95;72.86;101902.91;5025417;28;45382;-75
2022/01/10 13:53:02;;;;;;;;;32.50;28.75;;;;;6.98;72.69;101905.50;5037354;28;45356;-75
2022/01/10 13:55:27;;;;;;;;;24.25;22.50;;;;;6.95;72.52;101895.78;5081896;27;47752;-73
2022/01/10 13:57:53;;;;;;;;;24.50;21.50;;;;;6.96;72.39;101889.56;5056721;28;45458;-73
2022/01/10 14:00:19;;;;;;;;;31.00;25.50;;;;;6.93;72.74;101880.69;5056903;28;45208;-73
2022/01/10 14:02:45;;;;;;;;;34.50;27.50;;;;;6.80;71.96;101867.50;5056463;28;45569;-73
2022/01/10 14:05:28;;;;;;;;;28.75;22.75;;;;;7.00;72.16;101907.25;5056637;28;45494;-73
2022/01/10 14:07:55;;;;;;;;;33.00;22.00;;;;;7.02;72.63;101913.47;5055304;28;45344;-74
2022/01/10 14:10:22;;;;;;;;;31.00;23.50;;;;;7.04;72.37;101905.44;5055951;28;45430;-74
2022/01/10 14:12:49;;;;;;;;;29.75;21.75;;;;;6.99;71.78;101907.28;5055271;28;45405;-72
2022/01/10 14:15:22;;;;;;;;;22.00;20.00;;;;;6.90;71.74;101891.38;5051377;28;46307;-73
2022/01/10 14:17:48;;;;;;;;;37.50;27.00;;;;;7.00;71.71;101907.25;5043790;28;45373;-76
2022/01/10 14:20:14;;;;;;;;;30.50;26.00;;;;;6.95;71.79;101909.13;5056049;28;45442;-75
2022/01/10 14:22:40;;;;;;;;;24.75;22.25;;;;;6.94;71.83;101910.00;5037833;28;46395;-75
2022/01/10 14:25:05;;;;;;;;;35.00;25.50;;;;;6.93;71.84;101918.03;5049984;28;46564;-75
2022/01/10 14:27:31;;;;;;;;;29.50;22.75;;;;;7.00;72.20;101923.25;5060660;28;45342;-74
2022/01/10 14:29:57;;;;;;;;;40.75;27.25;;;;;7.02;72.01;101925.91;5055937;28;45416;-73
2022/01/10 14:32:22;;;;;;;;;28.25;25.00;;;;;7.00;71.45;101933.94;5056183;28;45261;-73
2022/01/10 14:34:50;;;;;;;;;27.00;25.50;;;;;7.02;71.79;101931.25;5056144;28;45342;-74
2022/01/10 14:37:15;;;;;;;;;32.25;24.75;;;;;6.92;71.61;101921.59;5056139;28;45402;-72
2022/01/10 14:39:42;;;;;;;;;32.00;27.25;;;;;6.93;71.72;101924.25;5056074;28;45437;-73
2022/01/10 14:42:07;;;;;;;;;31.50;23.00;;;;;6.95;71.51;101940.22;5055924;28;45403;-74
2022/01/10 14:44:33;;;;;;;;;36.25;28.25;;;;;6.94;72.23;101952.66;5055891;28;46359;-73
2022/01/10 14:46:58;;;;;;;;;30.25;29.00;;;;;6.93;72.28;101944.69;5055777;28;46997;-72
2022/01/10 14:49:24;;;;;;;;;29.25;24.25;;;;;6.93;71.88;101950.91;5055921;28;45440;-73
2022/01/10 14:51:49;;;;;;;;;33.75;27.25;;;;;6.89;71.90;101943.81;5037731;28;46631;-73
2022/01/10 14:54:15;;;;;;;;;37.25;28.00;;;;;6.99;71.79;101953.47;5056134;28;46486;-72
2022/01/10 14:56:40;;;;;;;;;29.50;24.00;;;;;7.03;72.07;101962.34;5037680;28;45350;-72
2022/01/10 14:59:06;;;;;;;;;28.50;27.25;;;;;7.05;71.66;101964.09;5056109;28;45415;-71
2022/01/10 15:01:32;;;;;;;;;33.25;23.75;;;;;7.07;71.71;101969.38;5055389;28;45719;-73
2022/01/10 15:03:58;;;;;;;;;23.50;23.00;;;;;7.03;71.42;101962.34;5055075;28;46183;-74
2022/01/10 15:06:23;;;;;;;;;32.25;27.25;;;;;6.98;71.46;101953.50;5055616;28;45254;-73
2022/01/10 15:08:49;;;;;;;;;34.25;24.75;;;;;7.12;71.92;101979.13;5055537;28;46027;-71
2022/01/10 15:11:17;;;;;;;;;29.50;26.25;;;;;7.11;71.11;101988.00;5055158;28;45622;-72
2022/01/10 15:13:44;;;;;;;;;34.00;27.00;;;;;7.05;71.44;101995.22;5055689;28;46497;-72
2022/01/10 15:16:14;;;;;;;;;27.00;25.25;;;;;7.02;71.63;102001.44;5055233;28;45445;-72
2022/01/10 15:18:42;;;;;;;;;30.00;26.25;;;;;6.85;71.57;101984.75;5054973;28;45463;-74
2022/01/10 15:21:08;;;;;;;;;31.75;28.50;;;;;7.03;71.56;102016.56;5055441;28;45324;-73
2022/01/10 15:23:35;;;;;;;;;30.25;24.00;;;;;7.08;71.66;102022.69;5053949;28;46088;-72
2022/01/10 15:26:02;;;;;;;;;32.00;30.25;;;;;7.04;71.56;102010.31;5054134;28;45438;-75
2022/01/10 15:28:28;;;;;;;;;38.00;25.75;;;;;7.15;71.52;102027.06;5055325;28;45312;-72
2022/01/10 15:30:53;;;;;;;;;36.25;31.00;;;;;7.18;70.86;102027.03;5055086;28;45731;-72
2022/01/10 15:33:19;;;;;;;;;26.75;24.50;;;;;7.19;71.09;102030.59;5055396;28;46190;-73
2022/01/10 15:35:45;;;;;;;;;36.00;24.25;;;;;7.25;70.38;102048.28;5036784;28;45469;-73
2022/01/10 15:38:11;;;;;;;;;29.75;25.75;;;;;7.13;70.90;102028.00;5055553;28;45446;-73
2022/01/10 15:40:37;;;;;;;;;35.50;30.00;;;;;7.27;70.18;102050.06;5055276;28;45401;-74
2022/01/10 15:43:03;;;;;;;;;29.75;27.75;;;;;7.23;70.09;102051.88;5054854;28;45685;-72
2022/01/10 15:45:28;;;;;;;;;30.50;26.00;;;;;7.16;70.01;102050.16;5055790;28;45401;-71
2022/01/10 15:47:54;;;;;;;;;28.50;26.00;;;;;7.05;69.56;102043.22;5056898;28;45429;-77
2022/01/10 15:50:21;;;;;;;;;22.75;18.50;;;;;7.05;70.25;102059.19;5055405;28;45675;-75
2022/01/10 15:52:48;;;;;;;;;31.25;26.50;;;;;6.94;70.12;102056.63;5054801;28;45545;-75
2022/01/10 15:55:15;;;;;;;;;26.50;21.25;;;;;7.02;70.11;102075.22;5034786;28;45433;-74
2022/01/10 15:57:41;;;;;;;;;28.25;25.50;;;;;6.93;70.20;102069.97;5052929;28;45685;-74
2022/01/10 16:00:08;;;;;;;;;40.00;30.25;;;;;7.00;70.63;102075.22;5054643;28;45513;-73
2022/01/10 16:02:34;;;;;;;;;28.25;25.25;;;;;6.91;70.56;102070.00;5054324;28;45401;-74
2022/01/10 16:04:59;;;;;;;;;36.75;30.50;;;;;7.00;70.71;102090.34;5054479;28;45459;-74
2022/01/10 16:07:25;;;;;;;;;31.50;28.25;;;;;6.98;70.98;102082.34;5034805;28;45372;-73
2022/01/10 16:09:50;;;;;;;;;31.50;25.75;;;;;7.01;70.81;102087.66;5052158;28;45587;-74
2022/01/10 16:12:15;;;;;;;;;24.50;21.25;;;;;7.05;70.69;102094.75;5052142;28;45462;-73
2022/01/10 16:14:41;;;;;;;;;27.75;19.75;;;;;7.05;69.95;102094.75;5053602;28;45533;-72
2022/01/10 16:17:06;;;;;;;;;25.75;23.50;;;;;7.03;69.92;102096.53;5054327;28;45335;-73
2022/01/10 16:19:32;;;;;;;;;29.50;23.50;;;;;7.02;70.42;102096.56;5054486;28;45347;-74
2022/01/10 16:21:57;;;;;;;;;26.00;22.25;;;;;7.04;70.27;102092.97;5054548;28;46115;-74
2022/01/10 16:24:22;;;;;;;;;27.50;27.25;;;;;7.04;70.07;102095.66;5054925;28;45394;-76
2022/01/10 16:26:48;;;;;;;;;28.50;22.25;;;;;7.04;70.24;102106.31;5053980;28;45481;-74
2022/01/10 16:29:13;;;;;;;;;34.50;23.00;;;;;7.02;69.87;102104.56;5053827;28;45358;-75
2022/01/10 16:31:39;;;;;;;;;27.50;18.75;;;;;7.03;69.95;102109.88;5054000;28;45914;-76
2022/01/10 16:34:07;;;;;;;;;27.75;22.00;;;;;6.93;70.06;102102.84;5054456;28;45513;-75
2022/01/10 16:36:33;;;;;;;;;18.00;18.00;;;;;7.01;70.02;102119.66;5054885;28;45406;-76
2022/01/10 16:38:59;;;;;;;;;29.00;21.25;;;;;6.96;70.05;102109.94;5054523;28;45422;-73
2022/01/10 16:41:24;;;;;;;;;25.00;21.00;;;;;7.05;69.84;102123.19;5054476;28;46312;-73
2022/01/10 16:43:50;;;;;;;;;23.00;19.00;;;;;6.95;70.19;102110.84;5041575;28;45404;-75
2022/01/10 16:46:16;;;;;;;;;29.00;24.50;;;;;7.02;69.61;102131.22;5055015;28;45494;-76